This is the latest recevied weather packets stored in our database for station/object IU1OLT-7. If no packets are shown the sender has not sent any weather packets the latest 10 day(s).
| Time | Temp. | Humidity | Pressure | Rain* | Wind** | Luminosity | Snow |
|---|---|---|---|---|---|---|---|
| 1787648019 | 23.89° C | 61% | 1017.6 hPa | - | - | - | - |
| 1787647119 | 24.44° C | 61% | 1017.5 hPa | - | - | - | - |
| 1787646219 | 23.89° C | 63% | 1017.4 hPa | - | - | - | - |
| 1787645319 | 22.22° C | 70% | 1017.5 hPa | - | - | - | - |
| 1787644419 | 20.56° C | 77% | 1017.3 hPa | - | - | - | - |
| 1787643525 | 21.67° C | 74% | 1017.2 hPa | - | - | - | - |
| 1787642625 | 20.56° C | 81% | 1017.1 hPa | - | - | - | - |
| 1787640825 | 20° C | 83% | 1016.9 hPa | - | - | - | - |
| 1787639025 | 18.89° C | 87% | 1016.6 hPa | - | - | - | - |
| 1787637225 | 18.89° C | 86% | 1016.7 hPa | - | - | - | - |
| 1787636325 | 18.89° C | 87% | 1016.5 hPa | - | - | - | - |
| 1787635425 | 18.89° C | 88% | 1016.6 hPa | - | - | - | - |
| 1787633625 | 18.89° C | 83% | 1016.4 hPa | - | - | - | - |
| 1787631825 | 20.56° C | 78% | 1016.4 hPa | - | - | - | - |
| 1787630025 | 20.56° C | 74% | 1016.5 hPa | - | - | - | - |
| 1787628225 | 20.56° C | 74% | 1016.3 hPa | - | - | - | - |
| 1787625525 | 18.33° C | 86% | 1016.9 hPa | - | - | - | - |
| 1787624625 | 18.33° C | 88% | 1017 hPa | - | - | - | - |
| 1787623725 | 19.44° C | 78% | 1017.1 hPa | - | - | - | - |
| 1787622825 | 18.89° C | 79% | 1017.1 hPa | - | - | - | - |
| 1787621926 | 17.22° C | 95% | 1016.9 hPa | - | - | - | - |
| 1787620125 | 16.11° C | 94% | 1018.1 hPa | - | - | - | - |
| 1787619225 | 18.33° C | 80% | 1018.2 hPa | - | - | - | - |
| 1787618325 | 17.78° C | 72% | 1018.1 hPa | - | - | - | - |
| 1787617426 | 18.89° C | 70% | 1017.9 hPa | - | - | - | - |
* Rain since midnight (hover to see other rain measurements)
** Current wind speed in m/s (hover to see current wind gust speed)